createdAt,value
2018-09-04T00:01:30.992Z,96566.98
2018-09-04T00:04:01.056Z,96572.29
2018-09-04T00:06:31.140Z,96568.01
2018-09-04T00:09:01.168Z,96564.30
2018-09-04T00:11:31.239Z,96567.95
2018-09-04T00:14:01.307Z,96566.13
2018-09-04T00:16:31.428Z,96560.47
2018-09-04T00:19:01.428Z,96560.30
2018-09-04T00:21:31.455Z,96552.50
2018-09-04T00:24:01.993Z,96552.80
2018-09-04T00:26:31.627Z,96553.06
2018-09-04T00:29:01.799Z,96553.74
2018-09-04T00:31:31.837Z,96549.34
2018-09-04T00:34:01.924Z,96544.61
2018-09-04T00:36:32.039Z,96546.26
2018-09-04T00:39:02.068Z,96553.61
2018-09-04T00:41:32.087Z,96549.89
2018-09-04T00:44:02.203Z,96545.66
2018-09-04T00:46:32.216Z,96545.66
2018-09-04T00:49:02.279Z,96551.70
2018-09-04T00:51:32.451Z,96561.06
2018-09-04T00:54:02.499Z,96556.05
2018-09-04T00:56:32.612Z,96562.61
2018-09-04T00:59:02.749Z,96559.05
2018-09-04T01:01:32.753Z,96557.27
2018-09-04T01:04:02.868Z,96554.09
2018-09-04T01:06:32.961Z,96554.64
2018-09-04T01:09:03.107Z,96549.75
2018-09-04T01:11:33.129Z,96552.65
2018-09-04T01:14:03.115Z,96556.13
2018-09-04T01:16:33.302Z,96552.59
2018-09-04T01:19:03.200Z,96556.06
2018-09-04T01:21:33.307Z,96559.72
2018-09-04T01:24:03.419Z,96563.94
2018-09-04T01:26:33.916Z,96565.48
2018-09-04T01:29:04.082Z,96556.30
2018-09-04T01:31:34.020Z,96565.48
2018-09-04T01:34:04.020Z,96566.27
2018-09-04T01:36:34.132Z,96562.55
2018-09-04T01:39:04.451Z,96569.98
2018-09-04T01:41:34.256Z,96567.59
2018-09-04T01:44:04.350Z,96565.39
2018-09-04T01:46:34.427Z,96558.51
2018-09-04T01:49:04.516Z,96561.92
2018-09-04T01:51:34.668Z,96561.31
2018-09-04T01:54:04.709Z,96564.27
2018-09-04T01:56:34.824Z,96563.91
2018-09-04T01:59:04.959Z,96563.77
2018-09-04T02:01:35.638Z,96565.30
2018-09-04T02:04:04.986Z,96563.97
2018-09-04T02:06:35.099Z,96561.48
2018-09-04T02:09:06.778Z,96566.08
2018-09-04T02:11:35.930Z,96564.66
2018-09-04T02:14:05.555Z,96564.42
2018-09-04T02:16:35.543Z,96557.41
2018-09-04T02:19:05.748Z,96556.90
2018-09-04T02:21:35.613Z,96557.68
2018-09-04T02:24:05.744Z,96560.78
2018-09-04T02:26:35.739Z,96561.53
2018-09-04T02:29:05.997Z,96555.74
2018-09-04T02:31:35.982Z,96555.27
2018-09-04T02:34:06.018Z,96553.70
2018-09-04T02:36:36.062Z,96550.23
2018-09-04T02:39:09.060Z,96551.13
2018-09-04T02:41:38.255Z,96552.89
2018-09-04T02:44:07.429Z,96558.54
2018-09-04T02:46:36.959Z,96554.08
2018-09-04T02:49:07.611Z,96560.34
2018-09-04T02:51:37.181Z,96558.17
2018-09-04T02:54:07.033Z,96556.30
2018-09-04T02:56:36.867Z,96556.77
2018-09-04T02:59:06.906Z,96561.06
2018-09-04T03:01:37.008Z,96557.34
2018-09-04T03:04:07.305Z,96560.00
2018-09-04T03:06:37.245Z,96555.51
2018-09-04T03:09:08.038Z,96559.59
2018-09-04T03:11:37.371Z,96564.37
2018-09-04T03:14:07.756Z,96565.88
2018-09-04T03:16:37.535Z,96555.84
2018-09-04T03:19:07.641Z,96557.17
2018-09-04T03:21:37.755Z,96555.64
2018-09-04T03:24:07.904Z,96558.73
2018-09-04T03:26:37.922Z,96558.78
2018-09-04T03:29:08.011Z,96570.30
2018-09-04T03:31:38.156Z,96559.72
2018-09-04T03:34:08.150Z,96552.62
2018-09-04T03:36:38.407Z,96554.96
2018-09-04T03:39:09.446Z,96559.66
2018-09-04T03:41:38.681Z,96562.86
2018-09-04T03:44:08.533Z,96565.39
2018-09-04T03:46:38.651Z,96570.16
2018-09-04T03:49:08.707Z,96575.30
2018-09-04T03:51:38.795Z,96575.69
2018-09-04T03:54:08.923Z,96587.05
2018-09-04T03:56:39.024Z,96591.03
2018-09-04T03:59:09.034Z,96583.38
2018-09-04T04:01:54.580Z,96580.06
2018-09-04T04:04:23.885Z,96582.14
2018-09-04T04:06:53.154Z,96569.23
2018-09-04T04:09:22.401Z,96576.09
2018-09-04T04:11:51.607Z,96579.02
2018-09-04T04:14:20.727Z,96574.95
2018-09-04T04:16:49.898Z,96578.98
2018-09-04T04:19:19.165Z,96585.38
2018-09-04T04:21:48.326Z,96584.63
2018-09-04T04:24:17.527Z,96589.50
2018-09-04T04:26:46.691Z,96591.69
2018-09-04T04:29:15.867Z,96587.98
2018-09-04T04:31:45.046Z,96590.40
2018-09-04T04:34:14.243Z,96592.16
2018-09-04T04:36:43.415Z,96595.66
2018-09-04T04:39:12.578Z,96595.20
2018-09-04T04:41:41.766Z,96601.56
2018-09-04T04:44:10.928Z,96594.62
2018-09-04T04:46:40.815Z,96597.93
2018-09-04T04:49:10.866Z,96598.40
2018-09-04T04:51:40.988Z,96604.09
2018-09-04T04:54:11.061Z,96602.80
2018-09-04T04:56:41.126Z,96606.40
2018-09-04T04:59:11.246Z,96603.98
2018-09-04T05:01:42.054Z,96596.84
2018-09-04T05:04:11.484Z,96599.80
2018-09-04T05:06:41.551Z,96594.27
2018-09-04T05:09:11.808Z,96594.77
2018-09-04T05:11:41.784Z,96597.30
2018-09-04T05:14:11.902Z,96600.23
2018-09-04T05:16:42.714Z,96606.31
2018-09-04T05:19:18.353Z,96605.22
2018-09-04T05:21:53.186Z,96611.90
2018-09-04T05:24:22.463Z,96615.64
2018-09-04T05:26:51.627Z,96618.45
2018-09-04T05:29:21.903Z,96621.84
2018-09-04T05:32:00.196Z,96619.50
2018-09-04T05:34:29.384Z,96619.55
2018-09-04T05:36:58.755Z,96620.12
2018-09-04T05:39:27.916Z,96625.13
2018-09-04T05:42:01.158Z,96624.38
2018-09-04T05:44:30.319Z,96627.47
2018-09-04T05:46:59.554Z,96618.30
2018-09-04T05:49:31.631Z,96627.39
2018-09-04T05:52:00.838Z,96631.91
2018-09-04T05:54:30.028Z,96637.57
2018-09-04T05:56:59.276Z,96631.59
2018-09-04T05:59:28.444Z,96639.05
2018-09-04T06:01:57.607Z,96642.98
2018-09-04T06:04:26.780Z,96646.77
2018-09-04T06:06:55.940Z,96648.48
2018-09-04T06:09:25.158Z,96650.66
2018-09-04T06:11:54.326Z,96645.05
2018-09-04T06:14:23.496Z,96639.54
2018-09-04T06:16:52.673Z,96646.90
2018-09-04T06:19:21.852Z,96646.42
2018-09-04T06:21:51.024Z,96643.50
2018-09-04T06:24:20.200Z,96646.70
2018-09-04T06:26:49.382Z,96643.47
2018-09-04T06:29:18.550Z,96645.64
2018-09-04T06:31:47.742Z,96648.70
2018-09-04T06:34:16.940Z,96657.53
2018-09-04T06:36:46.228Z,96659.88
2018-09-04T06:39:15.306Z,96664.23
2018-09-04T06:41:45.294Z,96665.22
2018-09-04T06:44:15.628Z,96666.14
2018-09-04T06:46:45.606Z,96667.47
2018-09-04T06:49:15.626Z,96660.90
2018-09-04T06:51:45.742Z,96652.79
2018-09-04T06:54:15.872Z,96655.20
2018-09-04T06:56:46.010Z,96659.32
2018-09-04T06:59:16.090Z,96657.99
2018-09-04T07:01:46.535Z,96660.38
2018-09-04T07:04:16.180Z,96660.20
2018-09-04T07:06:46.343Z,96657.84
2018-09-04T07:09:16.406Z,96662.44
2018-09-04T07:11:46.579Z,96657.42
2018-09-04T07:14:16.702Z,96655.73
2018-09-04T07:16:48.496Z,96652.34
2018-09-04T07:19:19.557Z,96646.90
2018-09-04T07:21:48.740Z,96649.39
2018-09-04T07:24:17.983Z,96655.37
2018-09-04T07:26:47.666Z,96643.16
2018-09-04T07:29:17.263Z,96652.54
2018-09-04T07:31:47.319Z,96655.01
2018-09-04T07:34:17.374Z,96651.41
2018-09-04T07:36:47.474Z,96658.16
2018-09-04T07:39:18.023Z,96652.61
2018-09-04T07:41:47.652Z,96653.09
2018-09-04T07:44:17.736Z,96647.34
2018-09-04T07:46:47.670Z,96643.27
2018-09-04T07:49:17.812Z,96649.50
2018-09-04T07:51:47.845Z,96641.97
2018-09-04T07:54:19.135Z,96640.42
2018-09-04T07:56:48.326Z,96637.06
2018-09-04T07:59:17.967Z,96632.66
2018-09-04T08:01:47.983Z,96633.27
2018-09-04T08:04:22.799Z,96633.06
2018-09-04T08:06:52.182Z,96639.75
2018-09-04T08:09:21.448Z,96639.50
2018-09-04T08:11:50.668Z,96648.07
2018-09-04T08:14:19.839Z,96637.95
2018-09-04T08:16:49.038Z,96635.80
2018-09-04T08:19:18.386Z,96631.84
2018-09-04T08:21:48.494Z,96631.84
2018-09-04T08:24:18.589Z,96629.49
2018-09-04T08:26:48.639Z,96630.31
2018-09-04T08:29:18.734Z,96628.17
2018-09-04T08:31:48.670Z,96626.30
2018-09-04T08:34:18.808Z,96622.55
2018-09-04T08:36:48.823Z,96623.89
2018-09-04T08:39:18.831Z,96622.55
2018-09-04T08:41:48.936Z,96627.31
2018-09-04T08:44:18.965Z,96622.81
2018-09-04T08:46:48.976Z,96628.97
2018-09-04T08:49:19.123Z,96634.57
2018-09-04T08:51:49.082Z,96635.91
2018-09-04T08:54:19.199Z,96632.97
2018-09-04T08:56:49.248Z,96626.84
2018-09-04T08:59:19.316Z,96627.11
2018-09-04T09:01:49.379Z,96625.51
2018-09-04T09:04:19.436Z,96622.02
2018-09-04T09:06:49.551Z,96613.45
2018-09-04T09:09:19.643Z,96614.54
2018-09-04T09:11:49.599Z,96611.08
2018-09-04T09:14:19.687Z,96612.42
2018-09-04T09:16:49.761Z,96614.80
2018-09-04T09:19:19.852Z,96607.85
2018-09-04T09:21:49.843Z,96614.55
2018-09-04T09:24:19.951Z,96611.07
2018-09-04T09:26:50.627Z,96607.05
2018-09-04T09:29:20.100Z,96607.31
2018-09-04T09:31:50.092Z,96608.13
2018-09-04T09:34:20.174Z,96614.28
2018-09-04T09:36:50.419Z,96611.60
2018-09-04T09:39:20.275Z,96615.33
2018-09-04T09:41:50.372Z,96610.23
2018-09-04T09:44:20.438Z,96604.38
2018-09-04T09:46:50.426Z,96603.85
2018-09-04T09:49:20.468Z,96603.30
2018-09-04T09:51:50.534Z,96602.73
2018-09-04T09:54:20.653Z,96602.20
2018-09-04T09:56:50.745Z,96604.63
2018-09-04T09:59:20.810Z,96609.20
2018-09-04T10:01:57.886Z,96603.03
2018-09-04T10:04:27.360Z,96601.16
2018-09-04T10:06:56.645Z,96598.45
2018-09-04T10:09:25.850Z,96602.95
2018-09-04T10:11:55.039Z,96595.52
2018-09-04T10:14:24.219Z,96601.42
2018-09-04T10:16:53.397Z,96594.20
2018-09-04T10:19:22.649Z,96606.74
2018-09-04T10:21:51.822Z,96603.27
2018-09-04T10:24:21.479Z,96602.68
2018-09-04T10:26:51.550Z,96605.64
2018-09-04T10:29:21.568Z,96601.63
2018-09-04T10:34:32.551Z,96593.33
2018-09-04T10:37:02.078Z,96596.00
2018-09-04T10:39:36.499Z,96599.49
2018-09-04T10:42:05.718Z,96600.56
2018-09-04T10:44:34.822Z,96595.73
2018-09-04T10:47:04.331Z,96596.78
2018-09-04T10:49:33.730Z,96584.47
2018-09-04T10:52:03.986Z,96587.63
2018-09-04T10:54:33.133Z,96585.73
2018-09-04T10:57:02.468Z,96591.66
2018-09-04T10:59:31.619Z,96594.04
2018-09-04T11:02:00.991Z,96586.81
2018-09-04T11:04:30.241Z,96583.59
2018-09-04T11:06:59.622Z,96591.65
2018-09-04T11:09:28.873Z,96589.45
2018-09-04T11:11:57.995Z,96585.93
2018-09-04T11:14:27.560Z,96591.83
2018-09-04T11:16:56.753Z,96585.36
2018-09-04T11:19:25.885Z,96579.52
2018-09-04T11:21:55.031Z,96584.31
2018-09-04T11:24:24.206Z,96590.41
2018-09-04T11:26:53.442Z,96583.17
2018-09-04T11:29:23.227Z,96573.02
2018-09-04T11:31:53.237Z,96577.34
2018-09-04T11:34:23.230Z,96577.12
2018-09-04T11:36:53.324Z,96574.98
2018-09-04T11:39:23.535Z,96569.63
2018-09-04T11:41:53.401Z,96572.61
2018-09-04T11:44:23.486Z,96568.53
2018-09-04T11:46:53.731Z,96577.41
2018-09-04T11:49:23.661Z,96569.85
2018-09-04T11:51:53.894Z,96573.36
2018-09-04T11:54:23.808Z,96574.67
2018-09-04T11:56:53.926Z,96575.14
2018-09-04T11:59:24.026Z,96579.64
2018-09-04T12:01:56.763Z,96578.55
2018-09-04T12:04:25.970Z,96571.59
2018-09-04T12:06:55.227Z,96573.31
2018-09-04T12:09:24.434Z,96571.11
2018-09-04T12:11:54.439Z,96570.80
2018-09-04T12:14:28.358Z,96576.16
2018-09-04T12:16:57.548Z,96577.92
2018-09-04T12:19:27.589Z,96575.77
2018-09-04T12:21:56.725Z,96575.17
2018-09-04T12:24:25.879Z,96578.35
2018-09-04T12:26:55.018Z,96573.80
2018-09-04T12:29:24.782Z,96574.08
2018-09-04T12:31:54.823Z,96581.25
2018-09-04T12:34:25.091Z,96580.13
2018-09-04T12:36:54.950Z,96576.38
2018-09-04T12:39:25.257Z,96576.61
2018-09-04T12:41:55.152Z,96573.34
2018-09-04T12:44:24.431Z,96573.11
2018-09-04T12:46:53.484Z,96567.08
2018-09-04T12:49:22.638Z,96570.44
2018-09-04T12:51:51.863Z,96569.63
2018-09-04T12:54:21.004Z,96559.55
2018-09-04T12:56:50.283Z,96561.98
2018-09-04T12:59:19.413Z,96567.50
2018-09-04T13:01:48.564Z,96562.45
2018-09-04T13:04:17.742Z,96565.00
2018-09-04T13:06:46.896Z,96563.97
2018-09-04T13:11:44.406Z,96564.13
2018-09-04T13:14:13.537Z,96564.59
2018-09-04T13:16:42.685Z,96570.13
2018-09-04T13:19:11.849Z,96559.40
2018-09-04T13:21:41.008Z,96563.67
2018-09-04T13:24:10.147Z,96562.64
2018-09-04T13:26:40.092Z,96565.89
2018-09-04T13:29:09.237Z,96559.60
2018-09-04T13:31:38.366Z,96560.73
2018-09-04T13:34:07.906Z,96565.56
2018-09-04T13:36:37.071Z,96563.69
2018-09-04T13:39:06.203Z,96564.22
2018-09-04T13:41:35.402Z,96556.92
2018-09-04T13:44:04.550Z,96556.92
2018-09-04T13:46:33.691Z,96558.23
2018-09-04T13:49:02.841Z,96556.89
2018-09-04T13:51:31.981Z,96553.45
2018-09-04T13:54:01.159Z,96549.96
2018-09-04T13:56:30.307Z,96548.20
2018-09-04T13:58:59.464Z,96551.20
2018-09-04T14:01:28.599Z,96547.81
2018-09-04T14:03:57.745Z,96547.53
2018-09-04T14:06:27.615Z,96549.78
2018-09-04T14:08:57.767Z,96546.10
2018-09-04T14:11:27.892Z,96553.87
2018-09-04T14:13:58.018Z,96554.11
2018-09-04T14:16:28.125Z,96545.29
2018-09-04T14:18:58.027Z,96543.95
2018-09-04T14:21:28.025Z,96535.59
2018-09-04T14:23:58.147Z,96534.14
2018-09-04T14:26:28.445Z,96532.91
2018-09-04T14:29:09.350Z,96535.62
2018-09-04T14:31:28.442Z,96536.74
2018-09-04T14:33:58.426Z,96538.02
2018-09-04T14:36:28.716Z,96541.52
2018-09-04T14:38:58.686Z,96535.59
2018-09-04T14:41:28.678Z,96542.27
2018-09-04T14:43:58.807Z,96545.97
2018-09-04T14:46:28.949Z,96544.91
2018-09-04T14:48:58.959Z,96545.41
2018-09-04T14:51:28.953Z,96542.97
2018-09-04T14:53:59.074Z,96542.16
2018-09-04T14:56:29.239Z,96537.78
2018-09-04T14:58:59.422Z,96539.90
2018-09-04T15:01:29.257Z,96541.14
2018-09-04T15:03:59.505Z,96540.39
2018-09-04T15:06:29.577Z,96535.94
2018-09-04T15:08:59.602Z,96536.19
2018-09-04T15:11:29.755Z,96536.89
2018-09-04T15:13:59.666Z,96542.95
2018-09-04T15:16:29.858Z,96540.39
2018-09-04T15:19:00.250Z,96539.65
2018-09-04T15:21:30.005Z,96538.24
2018-09-04T15:24:00.019Z,96542.77
2018-09-04T15:26:30.143Z,96545.30
2018-09-04T15:29:00.153Z,96540.89
2018-09-04T15:31:30.333Z,96540.82
2018-09-04T15:34:00.403Z,96542.97
2018-09-04T15:36:30.455Z,96538.34
2018-09-04T15:39:00.563Z,96545.52
2018-09-04T15:41:30.618Z,96542.77
2018-09-04T15:44:00.679Z,96539.83
2018-09-04T15:46:31.053Z,96543.18
2018-09-04T15:49:06.111Z,96537.53
2018-09-04T15:51:35.271Z,96535.63
2018-09-04T15:54:04.440Z,96533.20
2018-09-04T15:56:33.638Z,96531.04
2018-09-04T15:59:02.761Z,96534.57
2018-09-04T16:01:31.890Z,96533.48
2018-09-04T16:04:01.424Z,96532.17
2018-09-04T16:06:31.600Z,96537.04
2018-09-04T16:09:01.593Z,96535.88
2018-09-04T16:11:31.765Z,96539.63
2018-09-04T16:14:01.683Z,96540.47
2018-09-04T16:16:31.798Z,96538.63
2018-09-04T16:19:08.287Z,96539.48
2018-09-04T16:21:37.437Z,96543.53
2018-09-04T16:24:06.917Z,96544.94
2018-09-04T16:26:36.068Z,96548.97
2018-09-04T16:29:05.194Z,96547.63
2018-09-04T16:31:34.561Z,96551.66
2018-09-04T16:34:03.719Z,96547.53
2018-09-04T16:36:32.852Z,96556.48
2018-09-04T16:39:02.656Z,96559.45
2018-09-04T16:41:32.751Z,96559.20
2018-09-04T16:44:02.954Z,96558.52
2018-09-04T16:46:32.886Z,96559.55
2018-09-04T16:49:02.927Z,96558.23
2018-09-04T16:51:33.355Z,96562.76
2018-09-04T16:54:03.177Z,96559.36
2018-09-04T16:56:33.634Z,96560.72
2018-09-04T16:59:03.373Z,96562.06
2018-09-04T17:01:33.753Z,96563.72
2018-09-04T17:04:03.971Z,96568.52
2018-09-04T17:06:34.050Z,96562.87
2018-09-04T17:09:04.601Z,96560.81
2018-09-04T17:11:34.336Z,96565.64
2018-09-04T17:14:04.333Z,96567.55
2018-09-04T17:16:34.473Z,96563.83
2018-09-04T17:19:05.038Z,96574.30
2018-09-04T17:21:34.621Z,96572.45
2018-09-04T17:24:04.718Z,96574.36
2018-09-04T17:26:34.845Z,96580.00
2018-09-04T17:29:04.977Z,96579.74
2018-09-04T17:31:34.955Z,96587.78
2018-09-04T17:34:05.034Z,96588.06
2018-09-04T17:36:35.278Z,96588.09
2018-09-04T17:39:07.099Z,96589.43
2018-09-04T17:41:36.268Z,96588.64
2018-09-04T17:44:05.802Z,96588.67
2018-09-04T17:46:35.645Z,96587.60
2018-09-04T17:49:05.619Z,96593.80
2018-09-04T17:51:35.762Z,96598.34
2018-09-04T17:54:05.917Z,96592.75
2018-09-04T17:56:36.022Z,96596.77
2018-09-04T17:59:07.127Z,96604.02
2018-09-04T18:01:36.387Z,96597.38
2018-09-04T18:04:06.118Z,96598.20
2018-09-04T18:06:36.412Z,96601.17
2018-09-04T18:09:07.655Z,96607.33
2018-09-04T18:11:36.823Z,96607.13
2018-09-04T18:14:06.518Z,96602.59
2018-09-04T18:16:36.582Z,96606.90
2018-09-04T18:19:06.749Z,96605.07
2018-09-04T18:21:36.761Z,96615.52
2018-09-04T18:24:06.878Z,96615.54
2018-09-04T18:26:37.023Z,96617.70
2018-09-04T18:29:07.114Z,96623.63
2018-09-04T18:31:37.075Z,96623.63
2018-09-04T18:34:07.849Z,96622.59
2018-09-04T18:36:37.435Z,96634.15
2018-09-04T18:39:07.961Z,96639.74
2018-09-04T18:41:37.550Z,96642.17
2018-09-04T18:44:07.677Z,96645.14
2018-09-04T18:46:37.750Z,96648.37
2018-09-04T18:49:07.930Z,96656.95
2018-09-04T18:51:37.946Z,96655.89
2018-09-04T18:54:07.963Z,96655.89
2018-09-04T18:56:38.152Z,96667.14
2018-09-04T18:59:08.274Z,96661.28
2018-09-04T19:01:38.314Z,96658.07
2018-09-04T19:04:08.325Z,96665.57
2018-09-04T19:06:38.566Z,96659.98
2018-09-04T19:09:08.939Z,96669.33
2018-09-04T19:11:38.647Z,96668.27
2018-09-04T19:14:08.810Z,96670.16
2018-09-04T19:16:38.870Z,96673.88
2018-09-04T19:19:08.929Z,96674.16
2018-09-04T19:21:39.354Z,96672.80
2018-09-04T19:24:09.188Z,96671.20
2018-09-04T19:26:39.402Z,96670.14
2018-09-04T19:29:09.377Z,96667.98
2018-09-04T19:31:39.527Z,96670.42
2018-09-04T19:34:09.571Z,96670.94
2018-09-04T19:36:39.679Z,96671.21
2018-09-04T19:39:10.421Z,96677.90
2018-09-04T19:41:39.910Z,96667.73
2018-09-04T19:44:09.999Z,96673.35
2018-09-04T19:46:40.106Z,96664.78
2018-09-04T19:49:10.154Z,96671.98
2018-09-04T19:51:40.247Z,96664.23
2018-09-04T19:54:10.315Z,96669.33
2018-09-04T19:56:40.447Z,96665.29
2018-09-04T19:59:10.614Z,96673.56
2018-09-04T20:01:41.087Z,96677.31
2018-09-04T20:04:10.748Z,96678.91
2018-09-04T20:06:40.795Z,96680.23
2018-09-04T20:09:11.038Z,96682.39
2018-09-04T20:11:41.017Z,96681.58
2018-09-04T20:14:11.114Z,96678.13
2018-09-04T20:16:41.312Z,96683.43
2018-09-04T20:19:11.324Z,96686.63
2018-09-04T20:21:41.409Z,96685.84
2018-09-04T20:24:11.422Z,96681.80
2018-09-04T20:26:41.609Z,96680.16
2018-09-04T20:29:11.625Z,96688.99
2018-09-04T20:31:41.744Z,96684.98
2018-09-04T20:34:11.939Z,96684.42
2018-09-04T20:36:41.984Z,96689.20
2018-09-04T20:39:13.055Z,96687.34
2018-09-04T20:41:42.195Z,96689.44
2018-09-04T20:44:12.254Z,96695.04
2018-09-04T20:46:42.418Z,96696.62
2018-09-04T20:49:13.341Z,96701.39
2018-09-04T20:51:42.589Z,96694.45
2018-09-04T20:54:12.556Z,96693.64
2018-09-04T20:57:22.285Z,96696.05
2018-09-04T21:00:09.688Z,96694.13
2018-09-04T21:02:56.115Z,96694.11
2018-09-04T21:05:42.495Z,96691.42
2018-09-04T21:08:30.194Z,96690.34
2018-09-04T21:10:59.343Z,96689.00
2018-09-04T21:13:28.567Z,96687.93
2018-09-04T21:15:57.769Z,96690.30
2018-09-04T21:18:26.911Z,96692.69
2018-09-04T21:20:56.055Z,96687.62
2018-09-04T21:23:25.195Z,96694.73
2018-09-04T21:25:54.457Z,96686.47
2018-09-04T21:28:23.590Z,96685.14
2018-09-04T21:30:52.737Z,96686.52
2018-09-04T21:33:21.877Z,96686.97
2018-09-04T21:35:51.030Z,96691.70
2018-09-04T21:38:20.186Z,96688.80
2018-09-04T21:40:49.329Z,96682.92
2018-09-04T21:43:18.476Z,96688.79
2018-09-04T21:45:47.636Z,96690.88
2018-09-04T21:48:16.777Z,96688.20
2018-09-04T21:50:45.935Z,96687.95
2018-09-04T21:53:15.074Z,96685.61
2018-09-04T21:55:45.075Z,96688.52
2018-09-04T21:58:15.288Z,96691.95
2018-09-04T22:00:45.211Z,96686.28
2018-09-04T22:03:15.366Z,96688.99
2018-09-04T22:05:45.550Z,96695.84
2018-09-04T22:08:15.574Z,96693.73
2018-09-04T22:10:45.587Z,96695.03
2018-09-04T22:13:15.763Z,96690.22
2018-09-04T22:15:46.026Z,96690.96
2018-09-04T22:18:15.866Z,96691.27
2018-09-04T22:20:46.270Z,96683.78
2018-09-04T22:23:16.173Z,96689.39
2018-09-04T22:25:46.322Z,96686.71
2018-09-04T22:28:16.421Z,96677.34
2018-09-04T22:30:46.450Z,96682.92
2018-09-04T22:33:16.512Z,96682.70
2018-09-04T22:35:46.871Z,96674.95
2018-09-04T22:38:16.833Z,96677.86
2018-09-04T22:40:46.826Z,96680.02
2018-09-04T22:43:16.925Z,96677.61
2018-09-04T22:45:47.287Z,96680.79
2018-09-04T22:48:17.214Z,96679.44
2018-09-04T22:50:52.494Z,96682.34
2018-09-04T22:53:21.622Z,96687.64
2018-09-04T22:55:50.771Z,96689.48
2018-09-04T22:58:19.963Z,96680.64
2018-09-04T23:00:49.109Z,96683.84
2018-09-04T23:03:18.263Z,96680.09
2018-09-04T23:05:47.905Z,96678.20
2018-09-04T23:08:17.897Z,96679.84
2018-09-04T23:10:47.990Z,96673.95
2018-09-04T23:13:18.253Z,96680.34
2018-09-04T23:15:48.286Z,96677.41
2018-09-04T23:18:18.380Z,96678.99
2018-09-04T23:20:48.421Z,96679.42
2018-09-04T23:23:18.589Z,96681.00
2018-09-04T23:25:48.662Z,96679.24
2018-09-04T23:28:18.806Z,96681.34
2018-09-04T23:30:48.854Z,96684.02
2018-09-04T23:33:17.998Z,96677.36
2018-09-04T23:35:47.146Z,96688.30
2018-09-04T23:38:16.297Z,96685.91
2018-09-04T23:40:45.542Z,96689.86
2018-09-04T23:43:14.699Z,96678.86
2018-09-04T23:45:43.844Z,96679.66
2018-09-04T23:48:12.998Z,96673.93
2018-09-04T23:50:42.158Z,96680.34
2018-09-04T23:53:11.313Z,96677.22
2018-09-04T23:55:40.464Z,96672.66
2018-09-04T23:58:09.610Z,96666.25
